Time;durP1;ratioP1;P1;durP2;ratioP2;P2;SDS_P1;SDS_P2;PMS_P1;PMS_P2;Temp;Humidity;BMP_temperature;BMP_pressure;BME280_temperature;BME280_humidity;BME280_pressure;Samples;Min_cycle;Max_cycle;Signal;HPM_P1;HPM_P2
2024/01/26 00:01:25;;;;;;;11.27;9.27;;;8.90;99.90;;;;;;5118006;28;20451;-64
2024/01/26 00:03:53;;;;;;;12.07;10.00;;;8.90;99.90;;;;;;5117384;28;20462;-64
2024/01/26 00:06:21;;;;;;;9.87;8.83;;;8.90;99.90;;;;;;5117819;28;20466;-64
2024/01/26 00:08:48;;;;;;;10.00;9.00;;;8.90;99.90;;;;;;5117851;28;20935;-65
2024/01/26 00:11:16;;;;;;;11.00;9.23;;;8.90;99.90;;;;;;5117247;28;20470;-65
2024/01/26 00:13:45;;;;;;;10.57;9.57;;;9.00;99.90;;;;;;5117684;28;20460;-64
2024/01/26 00:16:13;;;;;;;9.50;8.37;;;9.00;99.90;;;;;;5117142;28;20462;-65
2024/01/26 00:18:41;;;;;;;10.00;8.73;;;9.00;99.90;;;;;;5117139;28;20455;-65
2024/01/26 00:21:08;;;;;;;10.43;9.23;;;9.00;99.90;;;;;;5118212;28;20447;-64
2024/01/26 00:23:36;;;;;;;9.83;8.83;;;9.00;99.90;;;;;;5117525;28;20455;-64
2024/01/26 00:26:04;;;;;;;9.50;8.60;;;9.00;99.90;;;;;;5117881;28;20856;-65
2024/01/26 00:28:31;;;;;;;9.00;8.10;;;8.90;99.90;;;;;;5117568;28;20919;-64
2024/01/26 00:31:00;;;;;;;10.13;9.07;;;9.00;99.90;;;;;;5117651;28;20530;-63
2024/01/26 00:33:28;;;;;;;9.63;7.93;;;9.00;99.90;;;;;;5117271;28;20797;-64
2024/01/26 00:35:56;;;;;;;8.77;7.87;;;9.00;99.90;;;;;;5117508;28;20466;-64
2024/01/26 00:38:27;;;;;;;9.50;8.50;;;9.00;99.90;;;;;;5117273;28;20483;-63
2024/01/26 00:40:55;;;;;;;8.50;7.63;;;9.00;99.90;;;;;;5117528;28;20555;-64
2024/01/26 00:43:26;;;;;;;8.27;7.37;;;9.10;99.90;;;;;;5117374;28;20464;-63
2024/01/26 00:45:55;;;;;;;6.90;6.23;;;9.00;99.90;;;;;;5117077;28;20463;-64
2024/01/26 00:48:25;;;;;;;9.03;7.90;;;9.00;99.90;;;;;;5118857;28;20471;-64
2024/01/26 00:50:55;;;;;;;8.27;7.13;;;9.00;99.90;;;;;;5120642;28;20520;-64
2024/01/26 00:53:24;;;;;;;8.37;7.10;;;9.00;99.90;;;;;;5120521;28;20451;-64
2024/01/26 00:55:52;;;;;;;8.63;7.73;;;9.00;99.90;;;;;;5120424;28;20467;-64
2024/01/26 00:58:20;;;;;;;9.53;6.57;;;9.00;99.90;;;;;;5120090;28;20571;-63
2024/01/26 01:00:50;;;;;;;9.23;7.83;;;9.00;99.90;;;;;;5120643;28;20483;-64
2024/01/26 01:03:19;;;;;;;9.20;7.50;;;9.00;99.90;;;;;;5120842;28;20431;-63
2024/01/26 01:05:48;;;;;;;9.93;6.67;;;9.00;99.90;;;;;;5119793;28;20495;-63
2024/01/26 01:08:15;;;;;;;9.97;7.53;;;9.00;99.90;;;;;;5119711;28;20546;-63
2024/01/26 01:10:42;;;;;;;9.03;8.10;;;9.00;99.90;;;;;;5118405;28;20958;-63
2024/01/26 01:13:10;;;;;;;8.60;7.63;;;9.10;99.90;;;;;;5117890;27;20430;-63
2024/01/26 01:15:40;;;;;;;9.77;8.87;;;9.00;99.90;;;;;;5118182;28;20512;-64
2024/01/26 01:18:07;;;;;;;9.20;8.23;;;9.10;99.90;;;;;;5118553;28;20459;-64
2024/01/26 01:20:34;;;;;;;11.20;10.00;;;9.10;99.90;;;;;;5118400;28;20459;-63
2024/01/26 01:23:04;;;;;;;11.20;10.00;;;9.10;99.90;;;;;;5118396;28;20466;-65
2024/01/26 01:25:32;;;;;;;11.40;10.23;;;9.10;99.90;;;;;;5118649;28;20472;-65
2024/01/26 01:27:59;;;;;;;12.00;10.13;;;9.10;99.90;;;;;;5119140;28;20455;-65
2024/01/26 01:30:26;;;;;;;12.50;11.20;;;9.10;99.90;;;;;;5118886;28;20880;-64
2024/01/26 01:32:53;;;;;;;11.27;10.17;;;9.10;99.90;;;;;;5118949;28;20479;-64
2024/01/26 01:35:21;;;;;;;10.70;9.60;;;9.10;99.90;;;;;;5118611;28;20923;-64
2024/01/26 01:37:48;;;;;;;10.87;9.70;;;9.10;99.90;;;;;;5118804;28;20549;-63
2024/01/26 01:40:16;;;;;;;13.80;11.80;;;9.10;99.90;;;;;;5118656;28;20491;-63
2024/01/26 01:42:44;;;;;;;17.87;12.97;;;9.10;99.90;;;;;;5118627;28;20487;-63
2024/01/26 01:45:14;;;;;;;16.77;14.27;;;9.20;99.90;;;;;;5120024;28;20457;-63
2024/01/26 01:47:41;;;;;;;17.80;14.40;;;9.20;99.90;;;;;;5119554;28;20447;-63
2024/01/26 01:50:09;;;;;;;24.40;16.50;;;9.20;99.90;;;;;;5119882;28;20764;-63
2024/01/26 01:52:40;;;;;;;25.13;18.33;;;9.20;99.90;;;;;;5119466;28;20920;-63
2024/01/26 01:55:11;;;;;;;24.73;19.10;;;9.30;99.90;;;;;;5119804;28;20459;-63
2024/01/26 01:57:41;;;;;;;24.97;20.40;;;9.30;99.90;;;;;;5119230;28;20455;-63
2024/01/26 02:00:15;;;;;;;22.87;18.93;;;9.30;99.90;;;;;;5118180;28;20543;-63
2024/01/26 02:02:45;;;;;;;23.60;20.23;;;9.30;99.90;;;;;;5119599;28;20455;-62
2024/01/26 02:05:13;;;;;;;23.27;19.20;;;9.30;99.90;;;;;;5119309;28;20888;-63
2024/01/26 02:07:41;;;;;;;25.63;21.13;;;9.40;99.90;;;;;;5119006;28;20467;-63
2024/01/26 02:10:09;;;;;;;26.47;19.60;;;9.40;99.90;;;;;;5118936;28;20438;-63
2024/01/26 02:12:37;;;;;;;23.17;19.73;;;9.40;99.90;;;;;;5119322;28;20499;-63
2024/01/26 02:15:08;;;;;;;23.90;19.40;;;9.40;99.90;;;;;;5119445;28;20939;-63
2024/01/26 02:17:36;;;;;;;22.67;19.37;;;9.40;99.90;;;;;;5118424;28;20513;-63
2024/01/26 02:20:05;;;;;;;23.40;19.50;;;9.40;99.90;;;;;;5118590;28;20503;-64
2024/01/26 02:22:32;;;;;;;20.00;17.80;;;9.40;99.90;;;;;;5118824;28;20456;-64
2024/01/26 02:25:01;;;;;;;23.67;17.67;;;9.50;99.90;;;;;;5119069;28;20720;-63
2024/01/26 02:27:28;;;;;;;18.63;16.63;;;9.40;99.90;;;;;;5118680;28;20460;-64
2024/01/26 02:29:55;;;;;;;19.20;16.50;;;9.50;99.90;;;;;;5118677;28;20550;-64
2024/01/26 02:32:22;;;;;;;19.47;16.90;;;9.50;99.90;;;;;;5118682;28;20579;-64
2024/01/26 02:34:49;;;;;;;18.00;16.00;;;9.40;99.90;;;;;;5119307;28;20462;-63
2024/01/26 02:37:17;;;;;;;19.80;16.57;;;9.50;99.90;;;;;;5118852;28;20452;-64
2024/01/26 02:39:44;;;;;;;20.60;16.27;;;9.50;99.90;;;;;;5118937;28;20872;-64
2024/01/26 02:42:13;;;;;;;19.03;15.60;;;9.50;99.90;;;;;;5119215;28;20454;-65
2024/01/26 02:44:40;;;;;;;19.67;16.80;;;9.50;99.90;;;;;;5119478;28;20455;-65
2024/01/26 02:47:08;;;;;;;18.93;15.33;;;9.50;99.90;;;;;;5119481;28;20459;-65
2024/01/26 02:49:35;;;;;;;17.70;15.80;;;9.50;99.90;;;;;;5118367;28;20466;-64
2024/01/26 02:52:02;;;;;;;16.10;13.70;;;9.50;99.90;;;;;;5118798;28;20495;-64
2024/01/26 02:54:30;;;;;;;15.87;13.40;;;9.50;99.90;;;;;;5118550;28;20546;-64
2024/01/26 02:56:57;;;;;;;15.50;13.80;;;9.50;99.90;;;;;;5118530;28;20517;-64
2024/01/26 02:59:26;;;;;;;15.53;13.43;;;9.50;99.90;;;;;;5118629;28;20459;-64
2024/01/26 03:01:53;;;;;;;15.53;13.87;;;9.50;99.90;;;;;;5118244;28;20798;-63
2024/01/26 03:04:20;;;;;;;15.30;13.30;;;9.50;99.90;;;;;;5118617;28;20495;-65
2024/01/26 03:06:48;;;;;;;16.60;12.90;;;9.40;99.90;;;;;;5117893;28;20479;-64
2024/01/26 03:09:15;;;;;;;16.97;14.60;;;9.50;99.90;;;;;;5118826;28;20927;-64
2024/01/26 03:11:44;;;;;;;16.70;15.00;;;9.50;99.90;;;;;;5117351;28;20503;-65
2024/01/26 03:14:11;;;;;;;16.67;14.30;;;9.50;99.90;;;;;;5118696;28;20486;-65
2024/01/26 03:16:42;;;;;;;15.87;14.10;;;9.40;99.90;;;;;;5118809;28;20494;-64
2024/01/26 03:19:09;;;;;;;16.47;13.57;;;9.40;99.90;;;;;;5118809;28;20455;-64
2024/01/26 03:21:42;;;;;;;15.97;13.70;;;9.40;99.90;;;;;;5117451;28;20479;-63
2024/01/26 03:24:09;;;;;;;15.60;14.00;;;9.40;99.90;;;;;;5118370;28;20459;-63
2024/01/26 03:26:37;;;;;;;17.37;13.93;;;9.40;99.90;;;;;;5118331;28;20911;-63
2024/01/26 03:29:04;;;;;;;18.70;13.40;;;9.40;99.90;;;;;;5118429;28;20455;-64
2024/01/26 03:31:31;;;;;;;16.57;14.73;;;9.40;99.90;;;;;;5117554;28;20493;-64
2024/01/26 03:34:00;;;;;;;15.73;14.00;;;9.40;99.90;;;;;;5117872;28;20802;-64
2024/01/26 03:36:27;;;;;;;15.53;13.93;;;9.40;99.90;;;;;;5118500;28;20473;-64
2024/01/26 03:38:54;;;;;;;17.23;13.80;;;9.50;99.90;;;;;;5118156;28;20487;-64
2024/01/26 03:41:22;;;;;;;20.33;16.00;;;9.50;99.90;;;;;;5118345;28;20912;-64
2024/01/26 03:43:51;;;;;;;17.90;15.93;;;9.50;99.90;;;;;;5117966;28;20498;-64
2024/01/26 03:46:20;;;;;;;19.00;13.73;;;9.50;99.90;;;;;;5117611;28;20482;-64
2024/01/26 03:48:47;;;;;;;13.57;12.17;;;9.50;99.90;;;;;;5117852;28;20466;-65
2024/01/26 03:51:16;;;;;;;12.47;11.17;;;9.50;99.90;;;;;;5117165;28;20498;-64
2024/01/26 03:53:43;;;;;;;10.83;9.07;;;9.40;99.90;;;;;;5115887;28;20964;-65
2024/01/26 03:56:10;;;;;;;9.10;8.03;;;9.40;99.90;;;;;;5115952;28;20906;-65
2024/01/26 03:58:38;;;;;;;9.23;7.90;;;9.40;99.90;;;;;;5115818;28;20482;-64
2024/01/26 04:01:05;;;;;;;8.80;7.90;;;9.40;99.90;;;;;;5116122;28;20459;-65
2024/01/26 04:03:32;;;;;;;8.60;7.70;;;9.40;99.90;;;;;;5115815;28;20479;-65
2024/01/26 04:06:03;;;;;;;9.67;7.10;;;9.40;99.90;;;;;;5115741;28;20486;-64
2024/01/26 04:08:32;;;;;;;8.23;7.43;;;9.40;99.90;;;;;;5116848;28;20457;-64
2024/01/26 04:10:59;;;;;;;8.83;7.93;;;9.40;99.90;;;;;;5117175;28;20509;-64
2024/01/26 04:13:26;;;;;;;10.70;9.03;;;9.40;99.90;;;;;;5117085;28;20488;-65
2024/01/26 04:15:53;;;;;;;12.93;10.63;;;9.50;99.90;;;;;;5117493;28;20812;-65
2024/01/26 04:18:21;;;;;;;12.60;10.77;;;9.50;99.90;;;;;;5117424;28;20542;-65
2024/01/26 04:20:48;;;;;;;13.83;11.23;;;9.50;99.90;;;;;;5117416;28;20546;-65
2024/01/26 04:23:16;;;;;;;15.40;13.70;;;9.50;99.90;;;;;;5121469;28;20451;-65
2024/01/26 04:25:45;;;;;;;15.80;12.57;;;9.50;99.90;;;;;;5120859;28;20497;-65
2024/01/26 04:28:12;;;;;;;15.43;13.73;;;9.50;99.90;;;;;;5121113;28;20520;-65
2024/01/26 04:30:42;;;;;;;15.97;13.60;;;9.50;99.90;;;;;;5121124;28;20550;-65
2024/01/26 04:33:09;;;;;;;15.57;13.77;;;9.50;99.90;;;;;;5121219;28;20486;-65
2024/01/26 04:35:36;;;;;;;16.53;14.83;;;9.50;99.90;;;;;;5120946;28;20504;-66
2024/01/26 04:38:07;;;;;;;19.03;15.67;;;9.50;99.90;;;;;;5120579;28;20771;-66
2024/01/26 04:40:34;;;;;;;18.43;16.37;;;9.50;99.90;;;;;;5120863;28;20529;-65
2024/01/26 04:43:03;;;;;;;18.50;16.60;;;9.50;99.90;;;;;;5121136;28;20541;-66
2024/01/26 04:45:30;;;;;;;20.33;16.97;;;9.50;99.90;;;;;;5120569;28;20550;-67
2024/01/26 04:47:57;;;;;;;19.50;17.40;;;9.50;99.90;;;;;;5120840;28;20455;-66
2024/01/26 04:50:25;;;;;;;18.87;15.40;;;9.50;99.90;;;;;;5120194;28;20459;-65
2024/01/26 04:52:52;;;;;;;17.80;15.90;;;9.50;99.90;;;;;;5120901;28;20557;-66
2024/01/26 04:55:20;;;;;;;17.10;15.07;;;9.50;99.90;;;;;;5120151;28;20900;-64
2024/01/26 04:57:47;;;;;;;15.77;13.00;;;9.50;99.90;;;;;;5120494;28;20430;-66
2024/01/26 05:00:17;;;;;;;13.80;12.07;;;9.50;99.90;;;;;;5120543;28;20452;-65
2024/01/26 05:02:45;;;;;;;14.10;12.60;;;9.50;99.90;;;;;;5120725;28;20477;-65
2024/01/26 05:05:13;;;;;;;13.37;11.27;;;9.50;99.90;;;;;;5120531;28;20491;-65
2024/01/26 05:07:40;;;;;;;13.50;11.37;;;9.50;99.90;;;;;;5119983;28;20459;-66
2024/01/26 05:10:09;;;;;;;12.90;11.60;;;9.50;99.90;;;;;;5120168;28;20455;-65
2024/01/26 05:12:36;;;;;;;14.73;11.00;;;9.50;99.90;;;;;;5120673;28;20525;-65
2024/01/26 05:15:04;;;;;;;12.90;10.77;;;9.50;99.90;;;;;;5120522;28;20429;-65
2024/01/26 05:17:32;;;;;;;13.37;11.33;;;9.50;99.90;;;;;;5120084;28;20840;-65
2024/01/26 05:19:59;;;;;;;13.27;10.23;;;9.50;99.90;;;;;;5119956;28;20452;-66
2024/01/26 05:22:27;;;;;;;11.90;10.17;;;9.50;99.90;;;;;;5120222;28;20800;-66
2024/01/26 05:24:54;;;;;;;14.43;10.60;;;9.50;99.90;;;;;;5119820;28;20489;-66
2024/01/26 05:27:21;;;;;;;10.73;9.57;;;9.50;99.90;;;;;;5120120;27;20509;-65
2024/01/26 05:29:49;;;;;;;10.30;9.13;;;9.50;99.90;;;;;;5119839;28;20462;-65
2024/01/26 05:32:16;;;;;;;11.67;9.50;;;9.50;99.90;;;;;;5119683;28;20997;-65
2024/01/26 05:34:44;;;;;;;12.73;9.27;;;9.50;99.90;;;;;;5119232;28;20464;-65
2024/01/26 05:37:12;;;;;;;9.90;8.90;;;9.50;99.90;;;;;;5120101;28;20502;-67
2024/01/26 05:39:39;;;;;;;12.93;9.27;;;9.50;99.90;;;;;;5119567;28;20460;-64
2024/01/26 05:42:06;;;;;;;10.63;8.70;;;9.50;99.90;;;;;;5119348;28;20550;-65
2024/01/26 05:44:34;;;;;;;10.87;8.23;;;9.50;99.90;;;;;;5119514;28;20563;-66
2024/01/26 05:47:01;;;;;;;9.80;7.97;;;9.60;99.90;;;;;;5119919;27;20461;-65
2024/01/26 05:49:29;;;;;;;7.87;7.03;;;9.60;99.90;;;;;;5119061;28;20512;-66
2024/01/26 05:51:57;;;;;;;8.00;6.93;;;9.60;99.90;;;;;;5119707;28;20519;-66
2024/01/26 05:54:24;;;;;;;8.50;7.37;;;9.60;99.90;;;;;;5119404;28;20430;-66
2024/01/26 05:56:52;;;;;;;8.67;6.93;;;9.60;99.90;;;;;;5119317;28;21131;-65
2024/01/26 05:59:19;;;;;;;8.80;7.30;;;9.60;99.90;;;;;;5115514;28;20464;-64
2024/01/26 06:01:46;;;;;;;8.20;6.73;;;9.60;99.90;;;;;;5123056;27;20511;-66
2024/01/26 06:04:14;;;;;;;7.50;5.77;;;9.60;99.90;;;;;;5138733;27;20454;-65
2024/01/26 06:06:41;;;;;;;8.90;6.13;;;9.70;99.90;;;;;;5138676;27;20943;-65
2024/01/26 06:09:10;;;;;;;7.50;6.37;;;9.60;99.90;;;;;;5139393;27;20556;-65
2024/01/26 06:11:37;;;;;;;7.43;5.80;;;9.60;99.90;;;;;;5128375;27;20784;-65
2024/01/26 06:14:04;;;;;;;9.10;7.80;;;9.70;99.90;;;;;;5116789;28;20484;-66
2024/01/26 06:16:32;;;;;;;9.47;8.47;;;9.60;99.90;;;;;;5117231;28;20544;-66
2024/01/26 06:18:59;;;;;;;19.67;14.80;;;9.70;99.90;;;;;;5118976;27;20880;-65
2024/01/26 06:21:26;;;;;;;11.33;9.13;;;9.60;99.90;;;;;;5137847;27;20455;-65
2024/01/26 06:23:54;;;;;;;10.90;8.23;;;9.60;99.90;;;;;;5137659;27;20474;-66
2024/01/26 06:26:25;;;;;;;9.43;6.83;;;9.70;99.90;;;;;;5138483;27;20455;-65
2024/01/26 06:28:53;;;;;;;22.83;15.20;;;9.60;99.90;;;;;;5139111;27;20455;-66
2024/01/26 06:31:25;;;;;;;15.93;11.27;;;9.60;99.90;;;;;;5139214;27;20455;-65
2024/01/26 06:33:52;;;;;;;14.87;10.33;;;9.50;99.90;;;;;;5138716;27;20504;-66
2024/01/26 06:36:19;;;;;;;8.43;6.40;;;9.50;99.90;;;;;;5138208;27;20465;-65
2024/01/26 06:38:46;;;;;;;6.43;4.80;;;9.50;99.90;;;;;;5126762;27;20515;-65
2024/01/26 06:41:14;;;;;;;7.70;6.17;;;9.50;99.90;;;;;;5132879;27;20455;-66
2024/01/26 06:43:47;;;;;;;6.20;5.30;;;9.50;99.90;;;;;;5137597;27;20529;-65
2024/01/26 06:46:14;;;;;;;7.30;5.27;;;9.40;99.90;;;;;;5137764;27;20515;-66
2024/01/26 06:48:41;;;;;;;5.80;4.50;;;9.40;99.90;;;;;;5138608;27;20856;-65
2024/01/26 06:51:09;;;;;;;5.57;4.57;;;9.40;99.90;;;;;;5138889;27;20462;-67
2024/01/26 06:53:37;;;;;;;6.20;5.00;;;9.40;99.90;;;;;;5138653;27;20543;-64
2024/01/26 06:56:05;;;;;;;5.43;3.90;;;9.40;99.90;;;;;;5136559;27;20487;-65
2024/01/26 06:58:32;;;;;;;5.17;3.90;;;9.40;99.90;;;;;;5134254;27;20511;-65
2024/01/26 07:01:01;;;;;;;5.30;3.60;;;9.40;99.90;;;;;;5134556;27;20432;-66
2024/01/26 07:03:28;;;;;;;5.17;3.90;;;9.40;99.90;;;;;;5133886;27;20458;-67
2024/01/26 07:05:55;;;;;;;5.67;4.00;;;9.40;99.90;;;;;;5134348;27;20451;-66
2024/01/26 07:08:23;;;;;;;5.20;3.63;;;9.50;99.90;;;;;;5134523;27;20792;-66
2024/01/26 07:10:50;;;;;;;6.13;3.50;;;9.50;99.90;;;;;;5134809;27;20759;-67
2024/01/26 07:13:19;;;;;;;5.87;4.00;;;9.50;99.90;;;;;;5137154;27;20508;-66
2024/01/26 07:15:46;;;;;;;5.00;3.70;;;9.50;99.90;;;;;;5138235;27;20463;-66
2024/01/26 07:18:15;;;;;;;4.60;3.37;;;9.50;99.90;;;;;;5138424;27;20454;-67
2024/01/26 07:20:43;;;;;;;4.93;3.50;;;9.50;99.90;;;;;;5138076;27;20487;-66
2024/01/26 07:23:10;;;;;;;5.17;3.73;;;9.50;99.90;;;;;;5138475;27;20451;-66
2024/01/26 07:25:38;;;;;;;7.00;4.07;;;9.40;99.90;;;;;;5138122;27;20462;-65
2024/01/26 07:28:08;;;;;;;3.90;3.37;;;9.40;99.90;;;;;;5137792;27;20458;-64
2024/01/26 07:30:35;;;;;;;4.90;4.30;;;9.40;99.90;;;;;;5137544;27;20541;-64
2024/01/26 07:33:03;;;;;;;4.57;3.87;;;9.40;99.90;;;;;;5138168;27;20529;-64
2024/01/26 07:35:32;;;;;;;4.90;3.60;;;9.40;99.90;;;;;;5137657;27;20541;-64
2024/01/26 07:37:59;;;;;;;5.53;3.93;;;9.40;99.90;;;;;;5121511;27;20495;-64
2024/01/26 07:40:26;;;;;;;4.97;4.10;;;9.40;99.90;;;;;;5116916;28;20516;-64
2024/01/26 07:42:54;;;;;;;6.87;4.47;;;9.40;99.90;;;;;;5117000;28;20454;-63
2024/01/26 07:45:21;;;;;;;5.43;4.20;;;9.40;99.90;;;;;;5117501;28;20485;-64
2024/01/26 07:47:48;;;;;;;6.07;4.90;;;9.40;99.90;;;;;;5116860;28;20857;-64
2024/01/26 07:50:16;;;;;;;8.00;4.30;;;9.40;99.90;;;;;;5116809;28;20461;-64
2024/01/26 07:52:45;;;;;;;5.73;4.57;;;9.40;99.90;;;;;;5117099;28;20464;-66
2024/01/26 07:55:12;;;;;;;6.87;4.53;;;9.40;99.90;;;;;;5116288;28;20639;-67
2024/01/26 07:57:40;;;;;;;7.10;4.47;;;9.40;99.90;;;;;;5117162;28;20463;-66
2024/01/26 08:00:10;;;;;;;4.40;3.80;;;9.40;99.90;;;;;;5119193;28;20749;-67
2024/01/26 08:02:38;;;;;;;5.20;3.87;;;9.40;99.90;;;;;;5119540;27;20861;-67
2024/01/26 08:05:06;;;;;;;5.97;4.60;;;9.30;99.90;;;;;;5118827;28;20456;-68
2024/01/26 08:07:33;;;;;;;5.50;4.00;;;9.40;99.90;;;;;;5118164;28;20455;-68
2024/01/26 08:10:02;;;;;;;7.00;4.60;;;9.40;99.90;;;;;;5119324;28;20508;-68
2024/01/26 08:12:30;;;;;;;4.67;3.90;;;9.40;99.90;;;;;;5121527;27;20520;-71
2024/01/26 08:14:56;;;;;;;4.37;3.80;;;9.40;99.90;;;;;;5122353;28;20590;-73
2024/01/26 08:17:24;;;;;;;5.67;3.67;;;9.40;99.90;;;;;;5119321;28;20550;-71
2024/01/26 08:19:51;;;;;;;6.70;3.80;;;9.40;99.90;;;;;;5121483;28;20554;-68
2024/01/26 08:22:19;;;;;;;4.10;3.20;;;9.40;99.90;;;;;;5120679;27;20455;-68
2024/01/26 08:24:46;;;;;;;5.60;4.17;;;9.40;99.90;;;;;;5120771;27;20447;-67
2024/01/26 08:27:16;;;;;;;4.63;4.10;;;9.40;99.90;;;;;;5120571;27;20451;-66
2024/01/26 08:29:44;;;;;;;4.90;4.00;;;9.40;99.90;;;;;;5126945;27;20429;-67
2024/01/26 08:32:11;;;;;;;3.90;3.20;;;9.40;99.90;;;;;;5139882;27;20782;-68
2024/01/26 08:34:38;;;;;;;4.63;3.53;;;9.50;99.90;;;;;;5139692;27;20526;-67
2024/01/26 08:37:06;;;;;;;4.70;3.40;;;9.50;99.90;;;;;;5139350;27;20454;-65
2024/01/26 08:39:35;;;;;;;6.30;3.93;;;9.50;99.90;;;;;;5139851;27;20940;-66
2024/01/26 08:42:03;;;;;;;3.93;3.53;;;9.60;99.90;;;;;;5139368;27;20469;-66
2024/01/26 08:44:32;;;;;;;6.03;5.03;;;9.60;99.90;;;;;;5139640;27;20790;-66
2024/01/26 08:47:00;;;;;;;4.90;4.40;;;9.60;99.90;;;;;;5140506;27;20490;-66
2024/01/26 08:49:27;;;;;;;5.30;4.70;;;9.60;99.90;;;;;;5139114;27;20752;-68
2024/01/26 08:51:55;;;;;;;5.90;5.27;;;9.60;99.90;;;;;;5139152;27;20556;-68
2024/01/26 08:54:23;;;;;;;5.80;5.23;;;9.70;99.90;;;;;;5139289;27;20577;-65
2024/01/26 08:56:50;;;;;;;6.70;6.00;;;9.70;99.90;;;;;;5139341;27;20890;-65
2024/01/26 08:59:18;;;;;;;6.27;5.77;;;9.70;99.90;;;;;;5138943;27;20456;-66
2024/01/26 09:01:47;;;;;;;6.73;6.03;;;9.70;99.90;;;;;;5139356;27;20796;-65
2024/01/26 09:04:15;;;;;;;9.60;8.37;;;9.80;99.90;;;;;;5140773;27;20454;-65
2024/01/26 09:06:42;;;;;;;8.27;7.57;;;9.90;99.90;;;;;;5141139;27;20461;-65
2024/01/26 09:09:10;;;;;;;8.30;7.50;;;9.80;99.90;;;;;;5139056;27;20455;-65
2024/01/26 09:11:37;;;;;;;11.27;10.10;;;9.90;99.90;;;;;;5139560;27;20482;-64
2024/01/26 09:14:05;;;;;;;12.27;10.97;;;9.90;99.90;;;;;;5140451;27;20530;-64
2024/01/26 09:16:32;;;;;;;12.70;11.47;;;9.90;99.90;;;;;;5140737;27;20462;-64
2024/01/26 09:19:02;;;;;;;13.03;11.83;;;10.00;99.90;;;;;;5139842;27;20460;-65
2024/01/26 09:21:29;;;;;;;13.67;12.27;;;10.10;99.90;;;;;;5140337;27;20557;-64
2024/01/26 09:23:57;;;;;;;12.87;11.70;;;10.10;99.90;;;;;;5140477;27;20455;-66
2024/01/26 09:26:24;;;;;;;13.47;12.17;;;10.10;99.90;;;;;;5140576;27;20751;-66
2024/01/26 09:28:51;;;;;;;12.80;11.60;;;10.10;99.90;;;;;;5141015;27;20459;-65
2024/01/26 09:31:19;;;;;;;11.70;10.70;;;10.10;99.90;;;;;;5139887;27;20451;-66
2024/01/26 09:33:47;;;;;;;10.70;9.70;;;10.20;99.90;;;;;;5139291;27;21042;-65
2024/01/26 09:36:16;;;;;;;8.27;7.33;;;10.20;99.90;;;;;;5139335;27;20494;-65
2024/01/26 09:38:45;;;;;;;8.37;7.00;;;10.20;99.90;;;;;;5139151;27;20515;-67
2024/01/26 09:41:12;;;;;;;7.33;6.60;;;10.20;99.90;;;;;;5139137;27;20754;-66
2024/01/26 09:43:40;;;;;;;7.50;6.73;;;10.20;99.90;;;;;;5138671;27;20895;-64
2024/01/26 09:46:09;;;;;;;5.90;5.30;;;10.30;99.90;;;;;;5138819;27;20797;-67
2024/01/26 09:48:37;;;;;;;5.77;5.27;;;10.30;99.90;;;;;;5139602;27;20998;-65
2024/01/26 09:51:05;;;;;;;5.00;4.50;;;10.30;99.90;;;;;;5140100;27;20514;-64
2024/01/26 09:53:37;;;;;;;6.23;4.53;;;10.40;99.90;;;;;;5140122;27;20494;-65
2024/01/26 09:56:07;;;;;;;5.83;4.70;;;10.40;99.90;;;;;;5140008;27;20454;-64
2024/01/26 09:58:35;;;;;;;4.90;4.40;;;10.40;99.90;;;;;;5140272;27;20885;-65
2024/01/26 10:01:03;;;;;;;6.20;4.70;;;10.50;99.90;;;;;;5129388;27;20553;-65
2024/01/26 10:03:31;;;;;;;4.47;4.03;;;10.50;99.90;;;;;;5140171;27;20494;-65
2024/01/26 10:05:59;;;;;;;5.13;4.63;;;10.50;99.90;;;;;;5139720;27;20459;-69
2024/01/26 10:08:26;;;;;;;4.53;4.03;;;10.50;99.90;;;;;;5140133;27;20463;-72
2024/01/26 10:10:55;;;;;;;5.10;4.60;;;10.60;99.90;;;;;;5139202;27;20794;-69
2024/01/26 10:13:23;;;;;;;5.10;4.20;;;10.60;99.90;;;;;;5140221;27;20458;-66
2024/01/26 10:15:51;;;;;;;5.90;4.80;;;10.60;99.90;;;;;;5121929;27;20514;-65
2024/01/26 10:18:19;;;;;;;5.03;4.00;;;10.60;99.90;;;;;;5117756;28;20545;-66
2024/01/26 10:20:47;;;;;;;4.80;4.30;;;10.60;99.90;;;;;;5115966;28;20509;-63
2024/01/26 10:23:15;;;;;;;5.07;4.57;;;10.60;99.90;;;;;;5116600;28;20463;-65
2024/01/26 10:25:44;;;;;;;4.37;3.97;;;10.60;99.90;;;;;;5116353;28;20462;-66
2024/01/26 10:28:14;;;;;;;7.73;3.87;;;10.60;99.90;;;;;;5117546;28;20463;-65
2024/01/26 10:30:45;;;;;;;6.80;4.90;;;10.60;99.90;;;;;;5116689;28;20452;-65
2024/01/26 10:33:15;;;;;;;5.00;4.10;;;10.70;99.90;;;;;;5117456;28;20455;-64
2024/01/26 10:35:46;;;;;;;6.67;4.40;;;10.70;99.90;;;;;;5118120;28;20513;-66
2024/01/26 10:38:15;;;;;;;6.30;3.87;;;10.70;99.90;;;;;;5118668;28;20527;-66
2024/01/26 10:40:44;;;;;;;4.83;4.20;;;10.70;99.90;;;;;;5118334;28;20549;-67
2024/01/26 10:43:14;;;;;;;5.67;4.20;;;10.70;99.90;;;;;;5118859;28;20546;-67
2024/01/26 10:45:44;;;;;;;4.97;3.90;;;10.70;99.90;;;;;;5118761;28;20452;-67
2024/01/26 10:48:12;;;;;;;5.53;3.83;;;10.70;99.90;;;;;;5118233;28;20888;-67
2024/01/26 10:50:40;;;;;;;5.33;4.27;;;10.60;99.90;;;;;;5118974;28;20510;-66
2024/01/26 10:53:10;;;;;;;5.00;4.50;;;10.70;99.90;;;;;;5119333;28;20456;-66
2024/01/26 10:55:38;;;;;;;5.07;4.57;;;10.70;99.90;;;;;;5118313;28;20952;-66
2024/01/26 10:58:06;;;;;;;8.97;4.40;;;10.70;99.90;;;;;;5118266;28;20501;-69
2024/01/26 11:00:36;;;;;;;5.87;4.23;;;10.60;99.90;;;;;;5118477;28;20520;-68
2024/01/26 11:03:05;;;;;;;5.30;4.10;;;10.60;99.90;;;;;;5118495;28;20467;-69
2024/01/26 11:05:33;;;;;;;4.50;3.40;;;10.70;99.90;;;;;;5118901;28;20479;-67
2024/01/26 11:08:06;;;;;;;7.23;3.37;;;10.60;99.90;;;;;;5118465;28;20766;-68
2024/01/26 11:10:35;;;;;;;4.60;3.10;;;10.50;99.90;;;;;;5119069;28;20577;-68
2024/01/26 11:13:03;;;;;;;6.43;3.13;;;10.50;99.90;;;;;;5119008;28;20783;-65
2024/01/26 11:15:31;;;;;;;5.40;3.53;;;10.40;99.90;;;;;;5118056;28;20548;-64
2024/01/26 11:18:00;;;;;;;5.00;3.30;;;10.40;99.90;;;;;;5117163;28;20455;-65
2024/01/26 11:20:30;;;;;;;5.10;3.27;;;10.40;99.90;;;;;;5118359;28;20574;-65
2024/01/26 11:23:02;;;;;;;4.37;3.40;;;10.30;99.90;;;;;;5118791;28;20466;-70
2024/01/26 11:25:35;;;;;;;3.60;2.37;;;10.20;99.90;;;;;;5118703;28;20490;-67
2024/01/26 11:28:04;;;;;;;4.30;2.00;;;9.50;99.90;;;;;;5118397;28;20466;-69
2024/01/26 11:30:32;;;;;;;3.40;2.00;;;9.00;99.90;;;;;;5118796;28;20523;-69
2024/01/26 11:33:01;;;;;;;3.70;2.17;;;8.80;99.90;;;;;;5117967;28;20494;-65
2024/01/26 11:35:29;;;;;;;3.37;1.80;;;8.60;99.90;;;;;;5117197;28;20601;-67
2024/01/26 11:37:57;;;;;;;4.47;1.90;;;8.70;99.90;;;;;;5118120;28;20499;-65
2024/01/26 11:40:25;;;;;;;3.30;2.20;;;8.70;99.90;;;;;;5117509;28;20557;-67
2024/01/26 11:42:53;;;;;;;7.30;2.47;;;8.70;99.90;;;;;;5117686;28;20757;-66
2024/01/26 11:45:41;;;;;;;5.57;2.40;;;8.70;99.90;;;;;;5117630;28;20494;-66
2024/01/26 11:48:11;;;;;;;9.00;2.53;;;8.90;99.90;;;;;;5116811;28;20520;-67
2024/01/26 11:50:41;;;;;;;5.80;2.13;;;9.10;99.90;;;;;;5117292;28;20466;-67
2024/01/26 11:53:10;;;;;;;5.23;2.90;;;9.10;99.90;;;;;;5117430;28;20463;-67
2024/01/26 11:55:38;;;;;;;4.87;2.40;;;9.30;99.90;;;;;;5115802;28;20576;-66
2024/01/26 11:58:07;;;;;;;4.00;2.53;;;9.50;99.90;;;;;;5116841;28;20459;-66
2024/01/26 12:00:35;;;;;;;11.63;3.00;;;9.50;99.90;;;;;;5117606;28;20478;-67
2024/01/26 12:03:07;;;;;;;7.33;2.10;;;9.70;99.90;;;;;;5116619;28;20466;-67
2024/01/26 12:05:36;;;;;;;6.20;2.30;;;9.70;99.90;;;;;;5116636;28;20456;-67
2024/01/26 12:08:05;;;;;;;7.10;2.37;;;9.80;99.90;;;;;;5119867;28;20489;-67
2024/01/26 12:10:33;;;;;;;8.00;3.00;;;9.70;99.90;;;;;;5137330;27;20514;-69
2024/01/26 12:13:02;;;;;;;6.23;3.00;;;9.60;99.90;;;;;;5129458;27;20459;-67
2024/01/26 12:15:32;;;;;;;6.87;2.70;;;9.70;99.90;;;;;;5115112;28;20487;-67
2024/01/26 12:18:00;;;;;;;6.70;2.23;;;10.00;99.90;;;;;;5115392;28;20487;-67
2024/01/26 12:20:27;;;;;;;7.33;2.43;;;10.00;99.90;;;;;;5115489;28;20460;-67
2024/01/26 12:22:57;;;;;;;8.03;2.17;;;10.10;99.90;;;;;;5116628;28;20753;-66
2024/01/26 12:25:28;;;;;;;6.80;2.87;;;9.90;1.00;;;;;;5116840;28;20633;-67
2024/01/26 12:28:02;;;;;;;7.93;2.87;;;9.50;99.90;;;;;;5116240;28;20469;-68
2024/01/26 12:30:29;;;;;;;4.03;2.47;;;9.10;99.90;;;;;;5117854;28;20806;-66
2024/01/26 12:33:06;;;;;;;4.37;2.77;;;8.80;1.00;;;;;;5117638;28;20463;-67
2024/01/26 12:35:35;;;;;;;4.70;2.10;;;8.70;99.90;;;;;;5115433;28;20503;-66
2024/01/26 12:38:04;;;;;;;4.70;2.00;;;8.60;28.70;;;;;;5116566;28;20917;-68
2024/01/26 12:40:32;;;;;;;8.43;2.50;;;8.40;1.00;;;;;;5106804;28;20469;-69
2024/01/26 12:43:01;;;;;;;5.30;2.30;;;8.30;1.00;;;;;;5107307;28;20549;-68
2024/01/26 12:45:28;;;;;;;6.70;2.40;;;8.10;1.00;;;;;;5120192;27;20467;-65
2024/01/26 12:47:56;;;;;;;6.63;2.30;;;8.00;1.00;;;;;;5119621;28;20938;-70
2024/01/26 12:50:24;;;;;;;6.43;3.03;;;8.30;1.00;;;;;;5120757;28;20460;-65
2024/01/26 12:52:52;;;;;;;5.37;2.10;;;8.60;1.00;;;;;;5121040;28;20542;-66